sensor_id;sensor_type;location;lat;lon;timestamp;P1;durP1;ratioP1;P2;durP2;ratioP2
56381;SDS011;50261;51.150;4.470;2022-09-03T00:07:44;3.97;;;1.48;;
56381;SDS011;50261;51.150;4.470;2022-09-03T00:10:15;3.50;;;1.20;;
56381;SDS011;50261;51.150;4.470;2022-09-03T00:12:42;3.92;;;1.45;;
56381;SDS011;50261;51.150;4.470;2022-09-03T00:15:13;4.93;;;1.50;;
56381;SDS011;50261;51.150;4.470;2022-09-03T00:20:06;4.60;;;1.33;;
56381;SDS011;50261;51.150;4.470;2022-09-03T00:22:36;3.70;;;1.27;;
56381;SDS011;50261;51.150;4.470;2022-09-03T00:25:04;6.88;;;1.40;;
56381;SDS011;50261;51.150;4.470;2022-09-03T00:27:32;3.17;;;1.40;;
56381;SDS011;50261;51.150;4.470;2022-09-03T00:30:07;2.67;;;1.38;;
56381;SDS011;50261;51.150;4.470;2022-09-03T00:32:38;4.18;;;1.23;;
56381;SDS011;50261;51.150;4.470;2022-09-03T00:35:05;3.85;;;1.45;;
56381;SDS011;50261;51.150;4.470;2022-09-03T00:37:33;3.00;;;1.33;;
56381;SDS011;50261;51.150;4.470;2022-09-03T00:39:58;5.10;;;1.20;;
56381;SDS011;50261;51.150;4.470;2022-09-03T00:44:56;3.67;;;1.27;;
56381;SDS011;50261;51.150;4.470;2022-09-03T00:47:29;4.97;;;1.80;;
56381;SDS011;50261;51.150;4.470;2022-09-03T00:52:46;4.40;;;1.30;;
56381;SDS011;50261;51.150;4.470;2022-09-03T01:00:17;3.22;;;1.40;;
56381;SDS011;50261;51.150;4.470;2022-09-03T01:06:12;3.50;;;1.30;;
56381;SDS011;50261;51.150;4.470;2022-09-03T01:10:44;3.50;;;1.75;;
56381;SDS011;50261;51.150;4.470;2022-09-03T01:13:13;2.25;;;1.40;;
56381;SDS011;50261;51.150;4.470;2022-09-03T01:16:43;5.50;;;1.38;;
56381;SDS011;50261;51.150;4.470;2022-09-03T01:21:15;4.68;;;1.50;;
56381;SDS011;50261;51.150;4.470;2022-09-03T01:24:02;2.55;;;1.20;;
56381;SDS011;50261;51.150;4.470;2022-09-03T01:26:41;5.82;;;1.48;;
56381;SDS011;50261;51.150;4.470;2022-09-03T01:29:22;3.78;;;1.63;;
56381;SDS011;50261;51.150;4.470;2022-09-03T01:41:58;7.82;;;1.63;;
56381;SDS011;50261;51.150;4.470;2022-09-03T01:52:28;2.92;;;1.52;;
56381;SDS011;50261;51.150;4.470;2022-09-03T01:55:05;3.80;;;1.52;;
56381;SDS011;50261;51.150;4.470;2022-09-03T01:57:53;5.32;;;1.45;;
56381;SDS011;50261;51.150;4.470;2022-09-03T02:00:21;3.35;;;1.60;;
56381;SDS011;50261;51.150;4.470;2022-09-03T02:02:47;5.32;;;1.77;;
56381;SDS011;50261;51.150;4.470;2022-09-03T02:05:14;6.15;;;1.60;;
56381;SDS011;50261;51.150;4.470;2022-09-03T02:07:45;2.78;;;1.70;;
56381;SDS011;50261;51.150;4.470;2022-09-03T02:10:19;3.50;;;1.83;;
56381;SDS011;50261;51.150;4.470;2022-09-03T02:12:46;3.78;;;1.58;;
56381;SDS011;50261;51.150;4.470;2022-09-03T02:15:14;2.03;;;1.50;;
56381;SDS011;50261;51.150;4.470;2022-09-03T02:17:40;3.80;;;1.80;;
56381;SDS011;50261;51.150;4.470;2022-09-03T02:20:07;6.40;;;1.77;;
56381;SDS011;50261;51.150;4.470;2022-09-03T02:22:36;3.25;;;1.70;;
56381;SDS011;50261;51.150;4.470;2022-09-03T02:25:01;4.45;;;1.80;;
56381;SDS011;50261;51.150;4.470;2022-09-03T02:27:27;2.05;;;1.27;;
56381;SDS011;50261;51.150;4.470;2022-09-03T02:29:53;2.90;;;1.50;;
56381;SDS011;50261;51.150;4.470;2022-09-03T02:32:18;3.20;;;1.73;;
56381;SDS011;50261;51.150;4.470;2022-09-03T02:34:44;6.57;;;1.88;;
56381;SDS011;50261;51.150;4.470;2022-09-03T02:37:13;4.47;;;1.50;;
56381;SDS011;50261;51.150;4.470;2022-09-03T02:39:39;5.05;;;1.58;;
56381;SDS011;50261;51.150;4.470;2022-09-03T02:42:05;5.03;;;1.67;;
56381;SDS011;50261;51.150;4.470;2022-09-03T02:44:31;4.38;;;1.42;;
56381;SDS011;50261;51.150;4.470;2022-09-03T02:47:01;4.78;;;1.48;;
56381;SDS011;50261;51.150;4.470;2022-09-03T02:49:27;3.20;;;1.58;;
56381;SDS011;50261;51.150;4.470;2022-09-03T02:51:57;4.53;;;2.03;;
56381;SDS011;50261;51.150;4.470;2022-09-03T02:54:23;5.18;;;1.60;;
56381;SDS011;50261;51.150;4.470;2022-09-03T02:56:48;3.03;;;1.52;;
56381;SDS011;50261;51.150;4.470;2022-09-03T02:59:13;7.70;;;2.15;;
56381;SDS011;50261;51.150;4.470;2022-09-03T03:01:39;2.63;;;1.50;;
56381;SDS011;50261;51.150;4.470;2022-09-03T03:04:04;3.50;;;1.40;;
56381;SDS011;50261;51.150;4.470;2022-09-03T03:06:30;3.88;;;1.35;;
56381;SDS011;50261;51.150;4.470;2022-09-03T03:08:55;3.75;;;1.42;;
56381;SDS011;50261;51.150;4.470;2022-09-03T03:11:21;1.88;;;1.50;;
56381;SDS011;50261;51.150;4.470;2022-09-03T03:13:48;5.88;;;1.42;;
56381;SDS011;50261;51.150;4.470;2022-09-03T03:16:14;3.35;;;1.80;;
56381;SDS011;50261;51.150;4.470;2022-09-03T03:18:40;4.03;;;1.60;;
56381;SDS011;50261;51.150;4.470;2022-09-03T03:21:06;7.65;;;1.52;;
56381;SDS011;50261;51.150;4.470;2022-09-03T03:23:32;1.98;;;1.45;;
56381;SDS011;50261;51.150;4.470;2022-09-03T03:26:02;3.80;;;1.52;;
56381;SDS011;50261;51.150;4.470;2022-09-03T03:28:28;2.80;;;1.58;;
56381;SDS011;50261;51.150;4.470;2022-09-03T03:30:55;3.92;;;1.52;;
56381;SDS011;50261;51.150;4.470;2022-09-03T03:33:20;4.30;;;1.67;;
56381;SDS011;50261;51.150;4.470;2022-09-03T03:35:46;2.90;;;1.63;;
56381;SDS011;50261;51.150;4.470;2022-09-03T03:38:12;4.72;;;1.85;;
56381;SDS011;50261;51.150;4.470;2022-09-03T03:40:37;3.10;;;1.73;;
56381;SDS011;50261;51.150;4.470;2022-09-03T03:43:03;3.92;;;1.55;;
56381;SDS011;50261;51.150;4.470;2022-09-03T03:45:28;3.97;;;1.63;;
56381;SDS011;50261;51.150;4.470;2022-09-03T03:47:57;4.53;;;1.65;;
56381;SDS011;50261;51.150;4.470;2022-09-03T03:50:23;4.53;;;1.58;;
56381;SDS011;50261;51.150;4.470;2022-09-03T03:52:49;3.90;;;1.95;;
56381;SDS011;50261;51.150;4.470;2022-09-03T03:55:14;2.70;;;1.63;;
56381;SDS011;50261;51.150;4.470;2022-09-03T03:57:40;6.50;;;1.58;;
56381;SDS011;50261;51.150;4.470;2022-09-03T04:00:06;4.30;;;1.60;;
56381;SDS011;50261;51.150;4.470;2022-09-03T04:02:39;3.08;;;1.55;;
56381;SDS011;50261;51.150;4.470;2022-09-03T04:05:05;4.30;;;1.60;;
56381;SDS011;50261;51.150;4.470;2022-09-03T04:07:31;3.70;;;2.00;;
56381;SDS011;50261;51.150;4.470;2022-09-03T04:09:56;6.10;;;1.40;;
56381;SDS011;50261;51.150;4.470;2022-09-03T04:12:22;2.78;;;1.63;;
56381;SDS011;50261;51.150;4.470;2022-09-03T04:14:48;3.35;;;1.60;;
56381;SDS011;50261;51.150;4.470;2022-09-03T04:17:14;5.20;;;1.75;;
56381;SDS011;50261;51.150;4.470;2022-09-03T04:19:39;2.17;;;1.63;;
56381;SDS011;50261;51.150;4.470;2022-09-03T04:22:05;4.03;;;1.67;;
56381;SDS011;50261;51.150;4.470;2022-09-03T04:24:31;4.68;;;1.60;;
56381;SDS011;50261;51.150;4.470;2022-09-03T04:26:56;7.25;;;1.55;;
56381;SDS011;50261;51.150;4.470;2022-09-03T04:29:22;3.75;;;1.67;;
56381;SDS011;50261;51.150;4.470;2022-09-03T04:31:49;5.25;;;1.60;;
56381;SDS011;50261;51.150;4.470;2022-09-03T04:34:33;3.53;;;1.88;;
56381;SDS011;50261;51.150;4.470;2022-09-03T04:36:58;2.85;;;1.63;;
56381;SDS011;50261;51.150;4.470;2022-09-03T04:39:24;3.05;;;1.60;;
56381;SDS011;50261;51.150;4.470;2022-09-03T04:41:50;2.90;;;1.42;;
56381;SDS011;50261;51.150;4.470;2022-09-03T04:44:16;3.40;;;1.92;;
56381;SDS011;50261;51.150;4.470;2022-09-03T04:46:42;2.05;;;1.50;;
56381;SDS011;50261;51.150;4.470;2022-09-03T04:49:08;6.22;;;1.90;;
56381;SDS011;50261;51.150;4.470;2022-09-03T04:51:34;3.60;;;1.98;;
56381;SDS011;50261;51.150;4.470;2022-09-03T04:54:02;5.72;;;1.83;;
56381;SDS011;50261;51.150;4.470;2022-09-03T04:56:28;3.38;;;1.60;;
56381;SDS011;50261;51.150;4.470;2022-09-03T04:58:56;2.75;;;1.45;;
56381;SDS011;50261;51.150;4.470;2022-09-03T05:01:22;7.03;;;1.80;;
56381;SDS011;50261;51.150;4.470;2022-09-03T05:03:48;3.83;;;1.67;;
56381;SDS011;50261;51.150;4.470;2022-09-03T05:06:16;3.55;;;1.90;;
56381;SDS011;50261;51.150;4.470;2022-09-03T05:08:42;2.53;;;1.80;;
56381;SDS011;50261;51.150;4.470;2022-09-03T05:11:08;4.35;;;1.63;;
56381;SDS011;50261;51.150;4.470;2022-09-03T05:13:34;3.85;;;1.60;;
56381;SDS011;50261;51.150;4.470;2022-09-03T05:16:01;5.25;;;1.80;;
56381;SDS011;50261;51.150;4.470;2022-09-03T05:18:27;2.75;;;1.80;;
56381;SDS011;50261;51.150;4.470;2022-09-03T05:20:59;2.63;;;1.70;;
56381;SDS011;50261;51.150;4.470;2022-09-03T05:23:26;3.33;;;1.58;;
56381;SDS011;50261;51.150;4.470;2022-09-03T05:25:58;5.13;;;1.70;;
56381;SDS011;50261;51.150;4.470;2022-09-03T05:28:25;4.90;;;2.13;;
56381;SDS011;50261;51.150;4.470;2022-09-03T05:33:23;5.57;;;1.60;;
56381;SDS011;50261;51.150;4.470;2022-09-03T05:35:49;4.28;;;1.50;;
56381;SDS011;50261;51.150;4.470;2022-09-03T05:38:15;6.78;;;1.52;;
56381;SDS011;50261;51.150;4.470;2022-09-03T05:40:42;2.75;;;1.90;;
56381;SDS011;50261;51.150;4.470;2022-09-03T05:43:07;5.28;;;1.73;;
56381;SDS011;50261;51.150;4.470;2022-09-03T05:45:33;3.50;;;1.60;;
56381;SDS011;50261;51.150;4.470;2022-09-03T05:47:59;3.58;;;1.35;;
56381;SDS011;50261;51.150;4.470;2022-09-03T05:50:25;2.92;;;1.45;;
56381;SDS011;50261;51.150;4.470;2022-09-03T05:52:51;6.68;;;1.52;;
56381;SDS011;50261;51.150;4.470;2022-09-03T05:55:17;2.90;;;1.50;;
56381;SDS011;50261;51.150;4.470;2022-09-03T05:57:43;9.15;;;2.00;;
56381;SDS011;50261;51.150;4.470;2022-09-03T06:00:10;7.53;;;1.85;;
56381;SDS011;50261;51.150;4.470;2022-09-03T06:02:37;4.68;;;1.60;;
56381;SDS011;50261;51.150;4.470;2022-09-03T06:05:03;6.35;;;2.33;;
56381;SDS011;50261;51.150;4.470;2022-09-03T06:07:28;3.47;;;1.65;;
56381;SDS011;50261;51.150;4.470;2022-09-03T06:09:54;4.13;;;1.73;;
56381;SDS011;50261;51.150;4.470;2022-09-03T06:12:20;3.65;;;1.63;;
56381;SDS011;50261;51.150;4.470;2022-09-03T06:14:46;6.80;;;1.95;;
56381;SDS011;50261;51.150;4.470;2022-09-03T06:17:11;6.00;;;1.90;;
56381;SDS011;50261;51.150;4.470;2022-09-03T06:19:39;3.38;;;1.83;;
56381;SDS011;50261;51.150;4.470;2022-09-03T06:22:05;2.28;;;1.63;;
56381;SDS011;50261;51.150;4.470;2022-09-03T06:24:30;3.38;;;1.60;;
56381;SDS011;50261;51.150;4.470;2022-09-03T06:26:56;2.40;;;1.80;;
56381;SDS011;50261;51.150;4.470;2022-09-03T06:29:22;2.90;;;1.63;;
56381;SDS011;50261;51.150;4.470;2022-09-03T06:31:48;3.88;;;1.67;;
56381;SDS011;50261;51.150;4.470;2022-09-03T06:34:15;4.82;;;1.77;;
56381;SDS011;50261;51.150;4.470;2022-09-03T06:36:44;7.68;;;2.08;;
56381;SDS011;50261;51.150;4.470;2022-09-03T06:39:10;3.72;;;1.90;;
56381;SDS011;50261;51.150;4.470;2022-09-03T06:41:36;4.70;;;1.98;;
56381;SDS011;50261;51.150;4.470;2022-09-03T06:44:03;2.95;;;1.95;;
56381;SDS011;50261;51.150;4.470;2022-09-03T06:46:33;5.65;;;2.00;;
56381;SDS011;50261;51.150;4.470;2022-09-03T06:48:59;5.40;;;1.65;;
56381;SDS011;50261;51.150;4.470;2022-09-03T06:51:25;5.47;;;1.80;;
56381;SDS011;50261;51.150;4.470;2022-09-03T06:53:53;6.60;;;2.08;;
56381;SDS011;50261;51.150;4.470;2022-09-03T06:56:20;4.82;;;1.85;;
56381;SDS011;50261;51.150;4.470;2022-09-03T06:58:55;4.47;;;1.83;;
56381;SDS011;50261;51.150;4.470;2022-09-03T07:01:22;4.32;;;1.50;;
56381;SDS011;50261;51.150;4.470;2022-09-03T07:03:54;4.40;;;2.00;;
56381;SDS011;50261;51.150;4.470;2022-09-03T07:06:23;3.10;;;1.70;;
56381;SDS011;50261;51.150;4.470;2022-09-03T07:08:49;4.35;;;2.40;;
56381;SDS011;50261;51.150;4.470;2022-09-03T07:11:16;4.85;;;2.28;;
56381;SDS011;50261;51.150;4.470;2022-09-03T07:13:44;5.85;;;3.38;;
56381;SDS011;50261;51.150;4.470;2022-09-03T07:16:12;5.95;;;2.13;;
56381;SDS011;50261;51.150;4.470;2022-09-03T07:18:38;7.28;;;2.10;;
56381;SDS011;50261;51.150;4.470;2022-09-03T07:21:05;2.17;;;1.75;;
56381;SDS011;50261;51.150;4.470;2022-09-03T07:23:31;5.78;;;2.13;;
56381;SDS011;50261;51.150;4.470;2022-09-03T07:25:58;3.95;;;2.00;;
56381;SDS011;50261;51.150;4.470;2022-09-03T07:28:26;6.78;;;2.00;;
56381;SDS011;50261;51.150;4.470;2022-09-03T07:30:53;6.18;;;2.15;;
56381;SDS011;50261;51.150;4.470;2022-09-03T07:33:18;6.22;;;2.10;;
56381;SDS011;50261;51.150;4.470;2022-09-03T07:35:45;5.78;;;2.22;;
56381;SDS011;50261;51.150;4.470;2022-09-03T07:38:10;5.30;;;2.35;;
56381;SDS011;50261;51.150;4.470;2022-09-03T07:40:37;6.30;;;1.85;;
56381;SDS011;50261;51.150;4.470;2022-09-03T07:43:06;4.20;;;2.05;;
56381;SDS011;50261;51.150;4.470;2022-09-03T07:45:32;4.18;;;1.88;;
56381;SDS011;50261;51.150;4.470;2022-09-03T07:47:58;7.07;;;2.40;;
56381;SDS011;50261;51.150;4.470;2022-09-03T07:50:24;7.75;;;1.95;;
56381;SDS011;50261;51.150;4.470;2022-09-03T07:52:54;4.00;;;1.67;;
56381;SDS011;50261;51.150;4.470;2022-09-03T07:55:20;4.35;;;2.10;;
56381;SDS011;50261;51.150;4.470;2022-09-03T07:57:46;7.15;;;2.10;;
56381;SDS011;50261;51.150;4.470;2022-09-03T08:00:12;6.82;;;1.80;;
56381;SDS011;50261;51.150;4.470;2022-09-03T08:02:38;4.47;;;1.70;;
56381;SDS011;50261;51.150;4.470;2022-09-03T08:05:04;6.07;;;1.80;;
56381;SDS011;50261;51.150;4.470;2022-09-03T08:07:30;2.42;;;1.77;;
56381;SDS011;50261;51.150;4.470;2022-09-03T08:09:56;3.92;;;1.88;;
56381;SDS011;50261;51.150;4.470;2022-09-03T08:12:21;8.07;;;2.00;;
56381;SDS011;50261;51.150;4.470;2022-09-03T08:14:48;4.70;;;1.90;;
56381;SDS011;50261;51.150;4.470;2022-09-03T08:17:13;3.15;;;1.90;;
56381;SDS011;50261;51.150;4.470;2022-09-03T08:19:39;3.55;;;1.83;;
56381;SDS011;50261;51.150;4.470;2022-09-03T08:22:06;3.33;;;1.67;;
56381;SDS011;50261;51.150;4.470;2022-09-03T08:24:32;5.80;;;1.60;;
56381;SDS011;50261;51.150;4.470;2022-09-03T08:26:58;4.15;;;1.75;;
56381;SDS011;50261;51.150;4.470;2022-09-03T08:29:24;7.68;;;1.80;;
56381;SDS011;50261;51.150;4.470;2022-09-03T08:31:51;4.22;;;1.60;;
56381;SDS011;50261;51.150;4.470;2022-09-03T08:34:17;3.03;;;1.48;;
56381;SDS011;50261;51.150;4.470;2022-09-03T08:36:44;4.93;;;1.60;;
56381;SDS011;50261;51.150;4.470;2022-09-03T08:39:11;3.97;;;1.63;;
56381;SDS011;50261;51.150;4.470;2022-09-03T08:49:26;4.20;;;1.75;;
56381;SDS011;50261;51.150;4.470;2022-09-03T08:51:53;4.70;;;1.52;;
56381;SDS011;50261;51.150;4.470;2022-09-03T08:54:22;4.03;;;1.75;;
56381;SDS011;50261;51.150;4.470;2022-09-03T08:56:49;5.47;;;2.15;;
56381;SDS011;50261;51.150;4.470;2022-09-03T08:59:16;3.35;;;1.92;;
56381;SDS011;50261;51.150;4.470;2022-09-03T09:07:16;6.45;;;2.15;;
56381;SDS011;50261;51.150;4.470;2022-09-03T09:09:48;3.13;;;1.77;;
56381;SDS011;50261;51.150;4.470;2022-09-03T09:12:18;2.92;;;1.80;;
56381;SDS011;50261;51.150;4.470;2022-09-03T09:22:09;4.28;;;2.20;;
56381;SDS011;50261;51.150;4.470;2022-09-03T09:24:42;1.75;;;1.65;;
56381;SDS011;50261;51.150;4.470;2022-09-03T09:27:09;4.50;;;1.92;;
56381;SDS011;50261;51.150;4.470;2022-09-03T09:29:37;4.70;;;2.30;;
56381;SDS011;50261;51.150;4.470;2022-09-03T09:32:03;7.55;;;2.30;;
56381;SDS011;50261;51.150;4.470;2022-09-03T09:34:36;5.38;;;1.70;;
56381;SDS011;50261;51.150;4.470;2022-09-03T09:37:03;4.55;;;1.95;;
56381;SDS011;50261;51.150;4.470;2022-09-03T09:39:29;6.68;;;2.35;;
56381;SDS011;50261;51.150;4.470;2022-09-03T09:41:56;4.10;;;2.28;;
56381;SDS011;50261;51.150;4.470;2022-09-03T09:44:24;6.30;;;2.08;;
56381;SDS011;50261;51.150;4.470;2022-09-03T09:46:50;8.05;;;2.10;;
56381;SDS011;50261;51.150;4.470;2022-09-03T09:49:29;2.88;;;1.83;;
56381;SDS011;50261;51.150;4.470;2022-09-03T09:52:00;3.67;;;2.08;;
56381;SDS011;50261;51.150;4.470;2022-09-03T09:54:26;4.20;;;2.00;;
56381;SDS011;50261;51.150;4.470;2022-09-03T09:56:59;4.97;;;2.08;;
56381;SDS011;50261;51.150;4.470;2022-09-03T10:02:01;6.10;;;2.35;;
56381;SDS011;50261;51.150;4.470;2022-09-03T10:04:29;2.95;;;2.20;;
56381;SDS011;50261;51.150;4.470;2022-09-03T10:06:57;3.53;;;1.98;;
56381;SDS011;50261;51.150;4.470;2022-09-03T10:09:26;4.45;;;2.15;;
56381;SDS011;50261;51.150;4.470;2022-09-03T10:14:58;5.38;;;2.40;;
56381;SDS011;50261;51.150;4.470;2022-09-03T10:17:26;5.15;;;2.30;;
56381;SDS011;50261;51.150;4.470;2022-09-03T10:23:01;3.45;;;2.05;;
56381;SDS011;50261;51.150;4.470;2022-09-03T10:26:12;4.13;;;1.98;;
56381;SDS011;50261;51.150;4.470;2022-09-03T10:28:19;5.65;;;2.25;;
56381;SDS011;50261;51.150;4.470;2022-09-03T10:33:37;6.55;;;2.58;;
56381;SDS011;50261;51.150;4.470;2022-09-03T10:36:17;4.63;;;2.47;;
56381;SDS011;50261;51.150;4.470;2022-09-03T10:38:44;3.38;;;2.03;;
56381;SDS011;50261;51.150;4.470;2022-09-03T10:41:18;6.63;;;2.42;;
56381;SDS011;50261;51.150;4.470;2022-09-03T10:44:09;4.25;;;2.38;;
56381;SDS011;50261;51.150;4.470;2022-09-03T10:49:39;4.32;;;3.33;;
56381;SDS011;50261;51.150;4.470;2022-09-03T10:52:31;5.95;;;2.70;;
56381;SDS011;50261;51.150;4.470;2022-09-03T10:55:05;6.93;;;2.47;;
56381;SDS011;50261;51.150;4.470;2022-09-03T10:57:45;8.13;;;2.90;;
56381;SDS011;50261;51.150;4.470;2022-09-03T11:00:13;6.65;;;2.88;;
56381;SDS011;50261;51.150;4.470;2022-09-03T11:05:40;5.05;;;2.83;;
56381;SDS011;50261;51.150;4.470;2022-09-03T11:10:42;3.28;;;2.75;;
56381;SDS011;50261;51.150;4.470;2022-09-03T11:20:51;3.45;;;2.33;;
56381;SDS011;50261;51.150;4.470;2022-09-03T11:23:19;5.35;;;2.30;;
56381;SDS011;50261;51.150;4.470;2022-09-03T11:25:50;2.83;;;2.50;;
56381;SDS011;50261;51.150;4.470;2022-09-03T11:33:48;4.10;;;2.45;;
56381;SDS011;50261;51.150;4.470;2022-09-03T11:36:20;5.60;;;2.55;;
56381;SDS011;50261;51.150;4.470;2022-09-03T11:38:47;4.22;;;2.30;;
56381;SDS011;50261;51.150;4.470;2022-09-03T11:41:13;4.40;;;2.40;;
56381;SDS011;50261;51.150;4.470;2022-09-03T11:43:40;2.47;;;2.28;;
56381;SDS011;50261;51.150;4.470;2022-09-03T11:46:12;3.90;;;2.40;;
56381;SDS011;50261;51.150;4.470;2022-09-03T11:48:42;4.35;;;2.40;;
56381;SDS011;50261;51.150;4.470;2022-09-03T11:54:05;5.13;;;2.38;;
56381;SDS011;50261;51.150;4.470;2022-09-03T11:56:33;6.03;;;2.55;;
56381;SDS011;50261;51.150;4.470;2022-09-03T12:01:25;5.15;;;2.50;;
56381;SDS011;50261;51.150;4.470;2022-09-03T12:03:55;6.65;;;2.90;;
56381;SDS011;50261;51.150;4.470;2022-09-03T12:14:22;2.85;;;2.60;;
56381;SDS011;50261;51.150;4.470;2022-09-03T12:19:59;4.63;;;3.10;;
56381;SDS011;50261;51.150;4.470;2022-09-03T12:22:11;4.13;;;2.42;;
56381;SDS011;50261;51.150;4.470;2022-09-03T12:24:38;3.47;;;2.80;;
56381;SDS011;50261;51.150;4.470;2022-09-03T12:27:04;5.20;;;2.88;;
56381;SDS011;50261;51.150;4.470;2022-09-03T12:29:30;6.85;;;3.08;;
56381;SDS011;50261;51.150;4.470;2022-09-03T12:32:04;6.25;;;2.90;;
56381;SDS011;50261;51.150;4.470;2022-09-03T12:34:30;4.57;;;3.65;;
56381;SDS011;50261;51.150;4.470;2022-09-03T12:36:56;4.80;;;3.53;;
56381;SDS011;50261;51.150;4.470;2022-09-03T12:39:23;9.35;;;3.00;;
56381;SDS011;50261;51.150;4.470;2022-09-03T12:42:05;8.20;;;3.20;;
56381;SDS011;50261;51.150;4.470;2022-09-03T12:47:01;6.15;;;3.72;;
56381;SDS011;50261;51.150;4.470;2022-09-03T12:49:33;6.32;;;3.28;;
56381;SDS011;50261;51.150;4.470;2022-09-03T12:52:00;3.15;;;2.85;;
56381;SDS011;50261;51.150;4.470;2022-09-03T12:54:27;5.22;;;3.88;;
56381;SDS011;50261;51.150;4.470;2022-09-03T12:56:55;4.82;;;3.30;;
56381;SDS011;50261;51.150;4.470;2022-09-03T12:59:21;7.82;;;3.60;;
56381;SDS011;50261;51.150;4.470;2022-09-03T13:01:52;5.32;;;3.40;;
56381;SDS011;50261;51.150;4.470;2022-09-03T13:04:28;6.10;;;3.22;;
56381;SDS011;50261;51.150;4.470;2022-09-03T13:07:07;3.75;;;3.30;;
56381;SDS011;50261;51.150;4.470;2022-09-03T13:09:36;6.50;;;3.55;;
56381;SDS011;50261;51.150;4.470;2022-09-03T13:12:02;5.85;;;3.58;;
56381;SDS011;50261;51.150;4.470;2022-09-03T13:14:41;5.93;;;3.30;;
56381;SDS011;50261;51.150;4.470;2022-09-03T13:22:49;5.43;;;2.75;;
56381;SDS011;50261;51.150;4.470;2022-09-03T13:30:16;5.65;;;3.22;;
56381;SDS011;50261;51.150;4.470;2022-09-03T13:33:19;5.05;;;3.08;;
56381;SDS011;50261;51.150;4.470;2022-09-03T13:38:06;4.80;;;2.75;;
56381;SDS011;50261;51.150;4.470;2022-09-03T13:40:34;4.35;;;3.22;;
56381;SDS011;50261;51.150;4.470;2022-09-03T13:45:47;4.47;;;2.90;;
56381;SDS011;50261;51.150;4.470;2022-09-03T13:48:23;5.80;;;3.00;;
56381;SDS011;50261;51.150;4.470;2022-09-03T13:53:35;3.35;;;2.60;;
56381;SDS011;50261;51.150;4.470;2022-09-03T13:56:15;4.30;;;2.40;;
56381;SDS011;50261;51.150;4.470;2022-09-03T13:58:47;3.38;;;2.45;;
56381;SDS011;50261;51.150;4.470;2022-09-03T14:06:36;3.10;;;2.63;;
56381;SDS011;50261;51.150;4.470;2022-09-03T14:11:37;3.13;;;2.83;;
56381;SDS011;50261;51.150;4.470;2022-09-03T14:14:11;3.92;;;2.90;;
56381;SDS011;50261;51.150;4.470;2022-09-03T14:21:49;3.15;;;2.78;;
56381;SDS011;50261;51.150;4.470;2022-09-03T14:26:54;5.90;;;3.30;;
56381;SDS011;50261;51.150;4.470;2022-09-03T14:29:27;4.93;;;3.60;;
56381;SDS011;50261;51.150;4.470;2022-09-03T14:36:53;4.88;;;3.00;;
56381;SDS011;50261;51.150;4.470;2022-09-03T14:42:30;2.90;;;2.50;;
56381;SDS011;50261;51.150;4.470;2022-09-03T14:50:10;4.28;;;2.78;;
56381;SDS011;50261;51.150;4.470;2022-09-03T14:55:18;5.30;;;2.67;;
56381;SDS011;50261;51.150;4.470;2022-09-03T15:00:20;9.45;;;5.30;;
56381;SDS011;50261;51.150;4.470;2022-09-03T15:03:19;3.05;;;2.70;;
56381;SDS011;50261;51.150;4.470;2022-09-03T15:05:49;3.17;;;2.70;;
56381;SDS011;50261;51.150;4.470;2022-09-03T15:10:54;4.75;;;2.60;;
56381;SDS011;50261;51.150;4.470;2022-09-03T15:13:29;4.38;;;2.90;;
56381;SDS011;50261;51.150;4.470;2022-09-03T15:16:07;6.15;;;3.17;;
56381;SDS011;50261;51.150;4.470;2022-09-03T15:18:55;3.95;;;2.90;;
56381;SDS011;50261;51.150;4.470;2022-09-03T15:23:58;5.07;;;3.00;;
56381;SDS011;50261;51.150;4.470;2022-09-03T15:36:59;3.65;;;3.03;;
56381;SDS011;50261;51.150;4.470;2022-09-03T15:39:35;5.18;;;3.15;;
56381;SDS011;50261;51.150;4.470;2022-09-03T15:42:05;5.68;;;3.45;;
56381;SDS011;50261;51.150;4.470;2022-09-03T15:44:50;3.63;;;3.03;;
56381;SDS011;50261;51.150;4.470;2022-09-03T15:57:59;6.25;;;3.05;;
56381;SDS011;50261;51.150;4.470;2022-09-03T16:04:00;3.28;;;2.97;;
56381;SDS011;50261;51.150;4.470;2022-09-03T16:11:59;4.15;;;3.03;;
56381;SDS011;50261;51.150;4.470;2022-09-03T16:17:25;7.18;;;2.97;;
56381;SDS011;50261;51.150;4.470;2022-09-03T16:22:27;5.45;;;2.92;;
56381;SDS011;50261;51.150;4.470;2022-09-03T16:27:33;3.70;;;3.17;;
56381;SDS011;50261;51.150;4.470;2022-09-03T16:30:10;4.38;;;3.78;;
56381;SDS011;50261;51.150;4.470;2022-09-03T16:32:59;11.43;;;5.30;;
56381;SDS011;50261;51.150;4.470;2022-09-03T16:38:11;15.60;;;5.10;;
56381;SDS011;50261;51.150;4.470;2022-09-03T16:40:50;8.57;;;4.43;;
56381;SDS011;50261;51.150;4.470;2022-09-03T16:43:32;5.35;;;3.85;;
56381;SDS011;50261;51.150;4.470;2022-09-03T16:46:27;8.23;;;4.70;;
56381;SDS011;50261;51.150;4.470;2022-09-03T16:49:03;5.95;;;4.50;;
56381;SDS011;50261;51.150;4.470;2022-09-03T16:51:51;5.50;;;4.50;;
56381;SDS011;50261;51.150;4.470;2022-09-03T16:54:42;6.82;;;4.13;;
56381;SDS011;50261;51.150;4.470;2022-09-03T17:08:20;8.27;;;4.07;;
56381;SDS011;50261;51.150;4.470;2022-09-03T17:15:31;3.92;;;2.80;;
56381;SDS011;50261;51.150;4.470;2022-09-03T17:20:41;3.08;;;2.75;;
56381;SDS011;50261;51.150;4.470;2022-09-03T17:25:53;4.60;;;3.35;;
56381;SDS011;50261;51.150;4.470;2022-09-03T17:31:12;6.35;;;3.88;;
56381;SDS011;50261;51.150;4.470;2022-09-03T17:36:22;3.80;;;2.65;;
56381;SDS011;50261;51.150;4.470;2022-09-03T17:39:12;4.03;;;2.70;;
56381;SDS011;50261;51.150;4.470;2022-09-03T17:44:18;3.78;;;2.40;;
56381;SDS011;50261;51.150;4.470;2022-09-03T17:49:19;2.78;;;2.55;;
56381;SDS011;50261;51.150;4.470;2022-09-03T17:51:48;6.00;;;2.67;;
56381;SDS011;50261;51.150;4.470;2022-09-03T17:54:26;4.18;;;2.90;;
56381;SDS011;50261;51.150;4.470;2022-09-03T17:59:44;3.25;;;2.40;;
56381;SDS011;50261;51.150;4.470;2022-09-03T18:04:43;4.80;;;2.63;;
56381;SDS011;50261;51.150;4.470;2022-09-03T18:07:21;5.07;;;2.47;;
56381;SDS011;50261;51.150;4.470;2022-09-03T18:09:53;4.80;;;2.88;;
56381;SDS011;50261;51.150;4.470;2022-09-03T18:14:58;3.53;;;2.42;;
56381;SDS011;50261;51.150;4.470;2022-09-03T18:17:40;4.32;;;2.45;;
56381;SDS011;50261;51.150;4.470;2022-09-03T18:20:08;4.72;;;2.50;;
56381;SDS011;50261;51.150;4.470;2022-09-03T18:25:49;3.05;;;2.55;;
56381;SDS011;50261;51.150;4.470;2022-09-03T18:28:39;3.63;;;2.85;;
56381;SDS011;50261;51.150;4.470;2022-09-03T18:31:25;2.58;;;2.28;;
56381;SDS011;50261;51.150;4.470;2022-09-03T18:34:10;3.10;;;2.38;;
56381;SDS011;50261;51.150;4.470;2022-09-03T18:36:57;4.20;;;2.65;;
56381;SDS011;50261;51.150;4.470;2022-09-03T18:39:44;7.00;;;3.67;;
56381;SDS011;50261;51.150;4.470;2022-09-03T18:42:43;4.60;;;3.20;;
56381;SDS011;50261;51.150;4.470;2022-09-03T19:05:35;5.45;;;3.63;;
56381;SDS011;50261;51.150;4.470;2022-09-03T19:08:31;5.85;;;4.22;;
56381;SDS011;50261;51.150;4.470;2022-09-03T19:12:02;5.45;;;3.67;;
56381;SDS011;50261;51.150;4.470;2022-09-03T19:14:28;4.55;;;3.40;;
56381;SDS011;50261;51.150;4.470;2022-09-03T19:17:19;5.07;;;3.50;;
56381;SDS011;50261;51.150;4.470;2022-09-03T19:20:12;5.28;;;3.55;;
56381;SDS011;50261;51.150;4.470;2022-09-03T19:22:57;6.88;;;3.95;;
56381;SDS011;50261;51.150;4.470;2022-09-03T19:25:41;5.28;;;4.40;;
56381;SDS011;50261;51.150;4.470;2022-09-03T19:28:28;5.45;;;3.70;;
56381;SDS011;50261;51.150;4.470;2022-09-03T19:36:59;5.47;;;4.32;;
56381;SDS011;50261;51.150;4.470;2022-09-03T19:51:34;4.78;;;4.30;;
56381;SDS011;50261;51.150;4.470;2022-09-03T19:54:22;4.97;;;4.47;;
56381;SDS011;50261;51.150;4.470;2022-09-03T19:57:07;5.55;;;4.43;;
56381;SDS011;50261;51.150;4.470;2022-09-03T19:59:53;5.05;;;4.05;;
56381;SDS011;50261;51.150;4.470;2022-09-03T20:02:38;4.28;;;3.55;;
56381;SDS011;50261;51.150;4.470;2022-09-03T20:05:22;4.55;;;3.95;;
56381;SDS011;50261;51.150;4.470;2022-09-03T20:10:51;3.05;;;2.67;;